Decoded Metar for UATE (SHEVCHENKO in KAZAKHSTAN) (IATA:N/A) | Meteo·Mobile Aviation Weather
aviador You're here:

UATE Decoded Metar

SHEVCHENKO in KAZAKHSTAN
Report Time2018-09-26 04:30:00
UTC Time2018-09-26 04:36:26
Flight Rules vfr VFR
WindVRB at 2 kt
Visibility9999 m
Phenomena:N/A
Clouds:N/A
Expected CloudBase > 4,000 ft AGL from Temp-Dew spread
CeilingNone
Temp21°C (ISA +6)
Dew Point11°C (53% RH)
AAT20.6°C
QNH1017 hPa
Density Alt833 ft
Elevation72 ft
Report Wrong Elevation
Raw Report
METAR UATE 260430Z VRB01MPS CAVOK 21/11 Q1017 R12/0///70 NOSIG RMK
QFE761/1015=

Extra information for UATE:More info

Metar Taf Metar & Taf Last 4 Metars F.Rules Stats Wind Profile Meteogram Temp Stats Airport Information Weather charts Add Link Nearby VenuesMetar ALERT Operation Metar Decoded Social comments